Impacts METAR Board
IDs:

KCFD - Bryan/Coulter Fld, TX, US

Updated at: 1300 UTC 14 Dec 2019
Potential Impact None Slight Moderate High
Time 14/01Z 14/02Z 14/03Z 14/04Z 14/05Z 14/06Z 14/07Z 14/08Z 14/09Z 14/10Z 14/11Z 14/12Z 14/13Z
Temp60 57 56 48 48 46 48 47 47 44 45 42 44
Dewpt47 47 47 47 47 45 46 46 47 44 45 42 44
Altim29.86 29.87 29.87 29.87 29.89 29.88 29.88 29.88 29.87 29.88 29.88 29.90 29.92
VIS10 10 10 10 10 10 10 10 10 10 10 5 10
CIG-- -- -- -- -- -- -- -- -- -- -- -- --
CoverCLRCLRCLRCLRCLRCLRCLRCLRCLRCLRCLRCLRCLR
FltCatVFRVFRVFRVFRVFRVFRVFRVFRVFRVFRVFRMVFRVFR
WX----------------------BR--
WDir0200000030000000
WSpd0 4 0 0 0 0 0 3 0 0 0 0 0
WGst-- -- -- -- -- -- -- -- -- -- -- -- --
Raw hourly METARs
KCFD 140055Z AUTO 00000KT 10SM CLR 16/08 A2986 RMK AO2 T01550081
KCFD 140155Z AUTO 02004KT 10SM CLR 14/08 A2987 RMK AO2 T01410082
KCFD 140255Z AUTO 00000KT 10SM CLR 14/08 A2987 RMK AO2 T01350083
KCFD 140355Z AUTO 00000KT 10SM CLR 09/09 A2987 RMK AO2 T00910086
KCFD 140455Z AUTO 00000KT 10SM CLR 09/09 A2989 RMK AO2 T00910085
KCFD 140555Z AUTO 00000KT 10SM CLR 08/07 A2988 RMK AO2 T00780073 10176 20072 402250072
KCFD 140655Z AUTO 00000KT 10SM CLR 09/08 A2988 RMK AO2 T00880076
KCFD 140755Z AUTO 30003KT 10SM CLR 08/08 A2988 RMK AO2 T00820079
KCFD 140855Z AUTO 00000KT 10SM CLR 08/08 A2987 RMK AO2 T00820082
KCFD 140955Z AUTO 00000KT 10SM CLR 07/07 A2988 RMK AO2 T00690067
KCFD 141055Z AUTO 00000KT 10SM CLR 07/07 A2988 RMK AO2 T00720072
KCFD 141155Z AUTO 00000KT 5SM BR CLR 06/06 A2990 RMK AO2 T00550055 10090 20053
KCFD 141255Z AUTO 00000KT 10SM CLR 07/07 A2992 RMK AO2 T00680068



Page loaded:  13:49 UTC  |   05:49 AM Pacific  |   06:49 AM Mountain  |   07:49 AM Central  |   08:49 AM Eastern

 

ADVISORIES

FORECASTS

FORECASTS

OBSERVATIONS

USER TOOLS

ABOUT US